sensor_id;sensor_type;location;lat;lon;timestamp;P1;durP1;ratioP1;P2;durP2;ratioP2
60851;SDS011;48553;50.766;2.900;2022-12-07T00:01:06;8.82;;;3.78;;
60851;SDS011;48553;50.766;2.900;2022-12-07T00:04:08;10.70;;;4.00;;
60851;SDS011;48553;50.766;2.900;2022-12-07T00:07:11;8.32;;;4.00;;
60851;SDS011;48553;50.766;2.900;2022-12-07T00:10:11;9.68;;;3.78;;
60851;SDS011;48553;50.766;2.900;2022-12-07T00:13:11;7.63;;;3.72;;
60851;SDS011;48553;50.766;2.900;2022-12-07T00:16:16;9.82;;;3.85;;
60851;SDS011;48553;50.766;2.900;2022-12-07T00:19:18;8.93;;;3.88;;
60851;SDS011;48553;50.766;2.900;2022-12-07T00:22:19;8.07;;;3.85;;
60851;SDS011;48553;50.766;2.900;2022-12-07T00:25:20;8.35;;;3.70;;
60851;SDS011;48553;50.766;2.900;2022-12-07T00:28:20;8.27;;;3.55;;
60851;SDS011;48553;50.766;2.900;2022-12-07T00:31:21;7.63;;;3.70;;
60851;SDS011;48553;50.766;2.900;2022-12-07T00:34:24;7.47;;;3.72;;
60851;SDS011;48553;50.766;2.900;2022-12-07T00:37:24;7.28;;;3.28;;
60851;SDS011;48553;50.766;2.900;2022-12-07T00:40:24;8.10;;;3.65;;
60851;SDS011;48553;50.766;2.900;2022-12-07T00:43:25;8.85;;;3.90;;
60851;SDS011;48553;50.766;2.900;2022-12-07T00:46:26;6.45;;;3.67;;
60851;SDS011;48553;50.766;2.900;2022-12-07T00:49:26;8.52;;;3.47;;
60851;SDS011;48553;50.766;2.900;2022-12-07T00:52:27;9.30;;;4.10;;
60851;SDS011;48553;50.766;2.900;2022-12-07T00:55:27;8.23;;;3.83;;
60851;SDS011;48553;50.766;2.900;2022-12-07T00:58:27;8.40;;;3.78;;
60851;SDS011;48553;50.766;2.900;2022-12-07T01:01:29;10.10;;;4.43;;
60851;SDS011;48553;50.766;2.900;2022-12-07T01:04:33;7.80;;;4.20;;
60851;SDS011;48553;50.766;2.900;2022-12-07T01:07:34;9.48;;;4.28;;
60851;SDS011;48553;50.766;2.900;2022-12-07T01:10:34;8.23;;;4.35;;
60851;SDS011;48553;50.766;2.900;2022-12-07T01:13:35;8.82;;;4.40;;
60851;SDS011;48553;50.766;2.900;2022-12-07T01:16:35;8.73;;;4.45;;
60851;SDS011;48553;50.766;2.900;2022-12-07T01:19:38;9.13;;;4.13;;
60851;SDS011;48553;50.766;2.900;2022-12-07T01:22:39;10.48;;;4.70;;
60851;SDS011;48553;50.766;2.900;2022-12-07T01:25:41;9.90;;;4.45;;
60851;SDS011;48553;50.766;2.900;2022-12-07T01:28:41;10.23;;;4.53;;
60851;SDS011;48553;50.766;2.900;2022-12-07T01:31:42;9.30;;;4.47;;
60851;SDS011;48553;50.766;2.900;2022-12-07T01:34:42;10.73;;;4.88;;
60851;SDS011;48553;50.766;2.900;2022-12-07T01:37:43;12.27;;;4.35;;
60851;SDS011;48553;50.766;2.900;2022-12-07T01:40:43;12.88;;;4.72;;
60851;SDS011;48553;50.766;2.900;2022-12-07T01:47:12;9.43;;;4.13;;
60851;SDS011;48553;50.766;2.900;2022-12-07T01:50:13;11.57;;;4.70;;
60851;SDS011;48553;50.766;2.900;2022-12-07T01:53:14;11.20;;;4.60;;
60851;SDS011;48553;50.766;2.900;2022-12-07T01:56:17;9.02;;;4.05;;
60851;SDS011;48553;50.766;2.900;2022-12-07T01:59:21;11.43;;;4.72;;
60851;SDS011;48553;50.766;2.900;2022-12-07T02:02:33;9.55;;;4.53;;
60851;SDS011;48553;50.766;2.900;2022-12-07T02:05:37;8.40;;;4.20;;
60851;SDS011;48553;50.766;2.900;2022-12-07T02:08:40;9.35;;;4.63;;
60851;SDS011;48553;50.766;2.900;2022-12-07T02:11:42;10.43;;;4.22;;
60851;SDS011;48553;50.766;2.900;2022-12-07T02:14:42;9.98;;;4.10;;
60851;SDS011;48553;50.766;2.900;2022-12-07T02:18:03;9.32;;;3.97;;
60851;SDS011;48553;50.766;2.900;2022-12-07T02:21:08;8.95;;;3.92;;
60851;SDS011;48553;50.766;2.900;2022-12-07T02:27:56;8.95;;;3.30;;
60851;SDS011;48553;50.766;2.900;2022-12-07T02:31:07;9.80;;;3.60;;
60851;SDS011;48553;50.766;2.900;2022-12-07T02:34:58;6.28;;;3.35;;
60851;SDS011;48553;50.766;2.900;2022-12-07T02:37:42;11.05;;;3.35;;
60851;SDS011;48553;50.766;2.900;2022-12-07T02:44:13;8.00;;;3.45;;
60851;SDS011;48553;50.766;2.900;2022-12-07T02:47:17;7.68;;;2.90;;
60851;SDS011;48553;50.766;2.900;2022-12-07T02:50:20;6.43;;;2.83;;
60851;SDS011;48553;50.766;2.900;2022-12-07T02:53:28;7.28;;;3.05;;
60851;SDS011;48553;50.766;2.900;2022-12-07T03:00:03;9.02;;;2.90;;
60851;SDS011;48553;50.766;2.900;2022-12-07T03:03:09;7.45;;;2.97;;
60851;SDS011;48553;50.766;2.900;2022-12-07T03:09:15;8.77;;;3.13;;
60851;SDS011;48553;50.766;2.900;2022-12-07T03:12:29;7.07;;;3.15;;
60851;SDS011;48553;50.766;2.900;2022-12-07T03:15:50;6.97;;;3.20;;
60851;SDS011;48553;50.766;2.900;2022-12-07T03:19:08;10.02;;;3.00;;
60851;SDS011;48553;50.766;2.900;2022-12-07T03:22:19;8.90;;;3.35;;
60851;SDS011;48553;50.766;2.900;2022-12-07T03:25:22;7.93;;;3.45;;
60851;SDS011;48553;50.766;2.900;2022-12-07T03:28:24;8.43;;;3.72;;
60851;SDS011;48553;50.766;2.900;2022-12-07T03:31:32;8.43;;;3.33;;
60851;SDS011;48553;50.766;2.900;2022-12-07T03:34:56;10.27;;;3.55;;
60851;SDS011;48553;50.766;2.900;2022-12-07T03:41:31;9.40;;;3.35;;
60851;SDS011;48553;50.766;2.900;2022-12-07T03:44:34;10.07;;;3.60;;
60851;SDS011;48553;50.766;2.900;2022-12-07T03:57:06;9.50;;;3.45;;
60851;SDS011;48553;50.766;2.900;2022-12-07T04:00:09;8.57;;;3.45;;
60851;SDS011;48553;50.766;2.900;2022-12-07T04:03:11;10.10;;;3.22;;
60851;SDS011;48553;50.766;2.900;2022-12-07T04:06:11;6.43;;;3.20;;
60851;SDS011;48553;50.766;2.900;2022-12-07T04:09:12;11.43;;;2.90;;
60851;SDS011;48553;50.766;2.900;2022-12-07T04:12:14;5.93;;;2.58;;
60851;SDS011;48553;50.766;2.900;2022-12-07T04:15:14;8.43;;;2.70;;
60851;SDS011;48553;50.766;2.900;2022-12-07T04:18:15;8.82;;;2.22;;
60851;SDS011;48553;50.766;2.900;2022-12-07T04:21:15;5.50;;;1.85;;
60851;SDS011;48553;50.766;2.900;2022-12-07T04:24:16;6.85;;;1.98;;
60851;SDS011;48553;50.766;2.900;2022-12-07T04:27:16;5.70;;;1.80;;
60851;SDS011;48553;50.766;2.900;2022-12-07T04:30:17;6.65;;;1.88;;
60851;SDS011;48553;50.766;2.900;2022-12-07T04:33:18;4.80;;;1.60;;
60851;SDS011;48553;50.766;2.900;2022-12-07T04:36:18;4.60;;;1.58;;
60851;SDS011;48553;50.766;2.900;2022-12-07T04:39:23;4.72;;;1.38;;
60851;SDS011;48553;50.766;2.900;2022-12-07T04:42:28;6.05;;;1.70;;
60851;SDS011;48553;50.766;2.900;2022-12-07T04:45:29;3.28;;;1.20;;
60851;SDS011;48553;50.766;2.900;2022-12-07T04:48:29;2.78;;;1.17;;
60851;SDS011;48553;50.766;2.900;2022-12-07T04:51:29;6.45;;;1.23;;
60851;SDS011;48553;50.766;2.900;2022-12-07T04:54:30;5.80;;;1.10;;
60851;SDS011;48553;50.766;2.900;2022-12-07T04:57:30;4.88;;;1.05;;
60851;SDS011;48553;50.766;2.900;2022-12-07T05:00:31;5.20;;;1.30;;
60851;SDS011;48553;50.766;2.900;2022-12-07T05:03:31;5.13;;;1.00;;
60851;SDS011;48553;50.766;2.900;2022-12-07T05:06:32;7.05;;;1.23;;
60851;SDS011;48553;50.766;2.900;2022-12-07T05:09:32;2.08;;;0.70;;
60851;SDS011;48553;50.766;2.900;2022-12-07T05:12:32;2.17;;;0.77;;
60851;SDS011;48553;50.766;2.900;2022-12-07T05:15:33;5.78;;;1.05;;
60851;SDS011;48553;50.766;2.900;2022-12-07T05:18:33;3.00;;;0.85;;
60851;SDS011;48553;50.766;2.900;2022-12-07T05:21:34;6.55;;;1.15;;
60851;SDS011;48553;50.766;2.900;2022-12-07T05:24:35;6.10;;;0.80;;
60851;SDS011;48553;50.766;2.900;2022-12-07T05:27:35;3.28;;;0.98;;
60851;SDS011;48553;50.766;2.900;2022-12-07T05:30:36;3.80;;;0.73;;
60851;SDS011;48553;50.766;2.900;2022-12-07T05:33:36;2.60;;;0.75;;
60851;SDS011;48553;50.766;2.900;2022-12-07T05:36:37;7.40;;;1.00;;
60851;SDS011;48553;50.766;2.900;2022-12-07T05:39:37;4.85;;;0.75;;
60851;SDS011;48553;50.766;2.900;2022-12-07T05:42:40;5.82;;;0.88;;
60851;SDS011;48553;50.766;2.900;2022-12-07T05:45:41;5.35;;;0.55;;
60851;SDS011;48553;50.766;2.900;2022-12-07T05:48:42;1.50;;;0.40;;
60851;SDS011;48553;50.766;2.900;2022-12-07T05:51:42;5.00;;;0.90;;
60851;SDS011;48553;50.766;2.900;2022-12-07T05:54:43;3.20;;;0.50;;
60851;SDS011;48553;50.766;2.900;2022-12-07T05:57:43;1.85;;;0.52;;
60851;SDS011;48553;50.766;2.900;2022-12-07T06:01:04;1.92;;;0.50;;
60851;SDS011;48553;50.766;2.900;2022-12-07T06:04:04;2.50;;;0.70;;
60851;SDS011;48553;50.766;2.900;2022-12-07T06:07:05;4.55;;;0.60;;
60851;SDS011;48553;50.766;2.900;2022-12-07T06:10:06;3.97;;;0.88;;
60851;SDS011;48553;50.766;2.900;2022-12-07T06:13:07;2.47;;;0.77;;
60851;SDS011;48553;50.766;2.900;2022-12-07T06:16:08;2.35;;;0.70;;
60851;SDS011;48553;50.766;2.900;2022-12-07T06:19:09;3.33;;;0.88;;
60851;SDS011;48553;50.766;2.900;2022-12-07T06:22:09;4.20;;;0.93;;
60851;SDS011;48553;50.766;2.900;2022-12-07T06:25:11;2.97;;;0.73;;
60851;SDS011;48553;50.766;2.900;2022-12-07T06:28:11;3.67;;;0.77;;
60851;SDS011;48553;50.766;2.900;2022-12-07T06:31:12;3.05;;;0.80;;
60851;SDS011;48553;50.766;2.900;2022-12-07T06:34:14;2.10;;;0.70;;
60851;SDS011;48553;50.766;2.900;2022-12-07T06:37:16;4.38;;;0.68;;
60851;SDS011;48553;50.766;2.900;2022-12-07T06:40:16;3.67;;;0.90;;
60851;SDS011;48553;50.766;2.900;2022-12-07T06:43:17;2.97;;;0.65;;
60851;SDS011;48553;50.766;2.900;2022-12-07T06:46:17;3.50;;;0.85;;
60851;SDS011;48553;50.766;2.900;2022-12-07T06:49:18;2.13;;;0.70;;
60851;SDS011;48553;50.766;2.900;2022-12-07T06:52:18;3.60;;;0.70;;
60851;SDS011;48553;50.766;2.900;2022-12-07T06:55:19;4.38;;;0.63;;
60851;SDS011;48553;50.766;2.900;2022-12-07T06:58:19;2.67;;;0.70;;
60851;SDS011;48553;50.766;2.900;2022-12-07T07:01:20;3.40;;;0.60;;
60851;SDS011;48553;50.766;2.900;2022-12-07T07:04:20;3.03;;;0.60;;
60851;SDS011;48553;50.766;2.900;2022-12-07T07:07:21;4.85;;;0.90;;
60851;SDS011;48553;50.766;2.900;2022-12-07T07:10:21;2.63;;;0.70;;
60851;SDS011;48553;50.766;2.900;2022-12-07T07:13:22;2.58;;;0.82;;
60851;SDS011;48553;50.766;2.900;2022-12-07T07:16:23;5.05;;;0.80;;
60851;SDS011;48553;50.766;2.900;2022-12-07T07:19:23;3.70;;;1.02;;
60851;SDS011;48553;50.766;2.900;2022-12-07T07:22:24;6.13;;;1.10;;
60851;SDS011;48553;50.766;2.900;2022-12-07T07:25:24;3.53;;;1.13;;
60851;SDS011;48553;50.766;2.900;2022-12-07T07:28:25;2.25;;;0.90;;
60851;SDS011;48553;50.766;2.900;2022-12-07T07:31:25;6.22;;;0.95;;
60851;SDS011;48553;50.766;2.900;2022-12-07T07:34:25;4.53;;;1.08;;
60851;SDS011;48553;50.766;2.900;2022-12-07T07:37:26;5.38;;;1.13;;
60851;SDS011;48553;50.766;2.900;2022-12-07T07:40:26;6.45;;;1.23;;
60851;SDS011;48553;50.766;2.900;2022-12-07T07:43:29;4.63;;;1.40;;
60851;SDS011;48553;50.766;2.900;2022-12-07T07:46:29;3.92;;;1.00;;
60851;SDS011;48553;50.766;2.900;2022-12-07T07:49:30;2.75;;;0.93;;
60851;SDS011;48553;50.766;2.900;2022-12-07T07:52:30;2.35;;;0.85;;
60851;SDS011;48553;50.766;2.900;2022-12-07T07:55:31;4.90;;;1.08;;
60851;SDS011;48553;50.766;2.900;2022-12-07T07:58:31;5.55;;;1.10;;
60851;SDS011;48553;50.766;2.900;2022-12-07T08:01:32;2.50;;;0.60;;
60851;SDS011;48553;50.766;2.900;2022-12-07T08:04:32;5.78;;;1.05;;
60851;SDS011;48553;50.766;2.900;2022-12-07T08:07:32;2.65;;;0.88;;
60851;SDS011;48553;50.766;2.900;2022-12-07T08:10:33;6.45;;;1.10;;
60851;SDS011;48553;50.766;2.900;2022-12-07T08:13:35;6.07;;;1.23;;
60851;SDS011;48553;50.766;2.900;2022-12-07T08:16:37;5.43;;;1.42;;
60851;SDS011;48553;50.766;2.900;2022-12-07T08:19:37;4.18;;;1.23;;
60851;SDS011;48553;50.766;2.900;2022-12-07T08:22:38;4.45;;;1.60;;
60851;SDS011;48553;50.766;2.900;2022-12-07T08:25:38;14.48;;;2.72;;
60851;SDS011;48553;50.766;2.900;2022-12-07T08:28:39;12.75;;;2.35;;
60851;SDS011;48553;50.766;2.900;2022-12-07T08:31:40;12.30;;;2.38;;
60851;SDS011;48553;50.766;2.900;2022-12-07T08:34:40;9.60;;;2.05;;
60851;SDS011;48553;50.766;2.900;2022-12-07T08:37:40;7.53;;;2.22;;
60851;SDS011;48553;50.766;2.900;2022-12-07T08:40:41;5.72;;;2.13;;
60851;SDS011;48553;50.766;2.900;2022-12-07T08:43:42;8.40;;;2.40;;
60851;SDS011;48553;50.766;2.900;2022-12-07T08:46:47;5.38;;;2.15;;
60851;SDS011;48553;50.766;2.900;2022-12-07T08:49:53;6.18;;;2.22;;
60851;SDS011;48553;50.766;2.900;2022-12-07T08:52:55;8.60;;;2.42;;
60851;SDS011;48553;50.766;2.900;2022-12-07T08:55:58;6.65;;;2.30;;
60851;SDS011;48553;50.766;2.900;2022-12-07T08:58:58;6.45;;;2.08;;
60851;SDS011;48553;50.766;2.900;2022-12-07T09:01:59;5.38;;;2.03;;
60851;SDS011;48553;50.766;2.900;2022-12-07T09:05:00;5.18;;;1.92;;
60851;SDS011;48553;50.766;2.900;2022-12-07T09:08:00;7.90;;;1.95;;
60851;SDS011;48553;50.766;2.900;2022-12-07T09:11:02;6.35;;;1.90;;
60851;SDS011;48553;50.766;2.900;2022-12-07T09:14:03;5.82;;;1.90;;
60851;SDS011;48553;50.766;2.900;2022-12-07T09:17:07;4.07;;;1.90;;
60851;SDS011;48553;50.766;2.900;2022-12-07T09:20:08;4.85;;;1.70;;
60851;SDS011;48553;50.766;2.900;2022-12-07T09:23:09;5.07;;;1.63;;
60851;SDS011;48553;50.766;2.900;2022-12-07T09:26:09;5.50;;;1.63;;
60851;SDS011;48553;50.766;2.900;2022-12-07T09:29:10;3.85;;;1.52;;
60851;SDS011;48553;50.766;2.900;2022-12-07T09:32:10;4.80;;;1.52;;
60851;SDS011;48553;50.766;2.900;2022-12-07T09:35:11;5.07;;;1.70;;
60851;SDS011;48553;50.766;2.900;2022-12-07T09:38:11;6.05;;;2.20;;
60851;SDS011;48553;50.766;2.900;2022-12-07T09:41:13;4.38;;;2.00;;
60851;SDS011;48553;50.766;2.900;2022-12-07T09:44:22;5.15;;;2.28;;
60851;SDS011;48553;50.766;2.900;2022-12-07T09:47:24;6.85;;;2.15;;
60851;SDS011;48553;50.766;2.900;2022-12-07T09:50:27;6.60;;;2.20;;
60851;SDS011;48553;50.766;2.900;2022-12-07T09:53:30;5.47;;;2.25;;
60851;SDS011;48553;50.766;2.900;2022-12-07T09:56:35;6.38;;;2.13;;
60851;SDS011;48553;50.766;2.900;2022-12-07T09:59:36;6.25;;;2.13;;
60851;SDS011;48553;50.766;2.900;2022-12-07T10:02:38;4.90;;;1.88;;
60851;SDS011;48553;50.766;2.900;2022-12-07T10:05:42;5.88;;;1.95;;
60851;SDS011;48553;50.766;2.900;2022-12-07T10:08:46;6.47;;;1.92;;
60851;SDS011;48553;50.766;2.900;2022-12-07T10:15:04;3.13;;;1.40;;
60851;SDS011;48553;50.766;2.900;2022-12-07T10:18:06;5.55;;;1.58;;
60851;SDS011;48553;50.766;2.900;2022-12-07T10:21:25;4.03;;;1.58;;
60851;SDS011;48553;50.766;2.900;2022-12-07T10:24:26;4.43;;;1.50;;
60851;SDS011;48553;50.766;2.900;2022-12-07T10:27:30;4.25;;;1.63;;
60851;SDS011;48553;50.766;2.900;2022-12-07T10:30:32;6.07;;;1.50;;
60851;SDS011;48553;50.766;2.900;2022-12-07T10:33:35;3.20;;;1.63;;
60851;SDS011;48553;50.766;2.900;2022-12-07T10:36:38;3.80;;;1.50;;
60851;SDS011;48553;50.766;2.900;2022-12-07T10:42:59;3.63;;;1.55;;
60851;SDS011;48553;50.766;2.900;2022-12-07T10:50:10;3.38;;;1.45;;
60851;SDS011;48553;50.766;2.900;2022-12-07T10:53:20;3.22;;;1.50;;
60851;SDS011;48553;50.766;2.900;2022-12-07T11:00:35;4.18;;;1.48;;
60851;SDS011;48553;50.766;2.900;2022-12-07T11:11:16;3.60;;;1.00;;
60851;SDS011;48553;50.766;2.900;2022-12-07T11:14:51;2.70;;;0.88;;
60851;SDS011;48553;50.766;2.900;2022-12-07T11:28:06;3.28;;;1.20;;
60851;SDS011;48553;50.766;2.900;2022-12-07T11:38:00;3.55;;;1.00;;
60851;SDS011;48553;50.766;2.900;2022-12-07T11:41:10;3.15;;;1.20;;
60851;SDS011;48553;50.766;2.900;2022-12-07T11:50:51;4.93;;;1.08;;
60851;SDS011;48553;50.766;2.900;2022-12-07T11:53:58;3.88;;;1.30;;
60851;SDS011;48553;50.766;2.900;2022-12-07T11:57:08;5.13;;;1.30;;
60851;SDS011;48553;50.766;2.900;2022-12-07T12:00:29;4.15;;;0.90;;
60851;SDS011;48553;50.766;2.900;2022-12-07T12:03:30;4.93;;;1.10;;
60851;SDS011;48553;50.766;2.900;2022-12-07T12:06:39;4.68;;;1.30;;
60851;SDS011;48553;50.766;2.900;2022-12-07T12:10:04;3.22;;;0.88;;
60851;SDS011;48553;50.766;2.900;2022-12-07T12:19:36;4.05;;;1.10;;
60851;SDS011;48553;50.766;2.900;2022-12-07T12:22:45;3.05;;;1.30;;
60851;SDS011;48553;50.766;2.900;2022-12-07T12:25:54;4.20;;;1.10;;
60851;SDS011;48553;50.766;2.900;2022-12-07T12:28:58;4.63;;;1.10;;
60851;SDS011;48553;50.766;2.900;2022-12-07T12:32:07;5.13;;;1.25;;
60851;SDS011;48553;50.766;2.900;2022-12-07T12:35:22;4.25;;;1.17;;
60851;SDS011;48553;50.766;2.900;2022-12-07T12:45:03;2.60;;;0.95;;
60851;SDS011;48553;50.766;2.900;2022-12-07T12:51:36;4.55;;;1.00;;
60851;SDS011;48553;50.766;2.900;2022-12-07T12:54:40;5.40;;;0.90;;
60851;SDS011;48553;50.766;2.900;2022-12-07T13:04:40;2.88;;;1.05;;
60851;SDS011;48553;50.766;2.900;2022-12-07T13:08:03;3.72;;;1.20;;
60851;SDS011;48553;50.766;2.900;2022-12-07T13:11:16;3.72;;;1.63;;
60851;SDS011;48553;50.766;2.900;2022-12-07T13:24:07;6.05;;;1.80;;
60851;SDS011;48553;50.766;2.900;2022-12-07T13:27:12;4.57;;;1.70;;
60851;SDS011;48553;50.766;2.900;2022-12-07T13:30:18;3.95;;;1.60;;
60851;SDS011;48553;50.766;2.900;2022-12-07T13:33:20;6.30;;;1.60;;
60851;SDS011;48553;50.766;2.900;2022-12-07T13:36:22;2.70;;;1.52;;
60851;SDS011;48553;50.766;2.900;2022-12-07T13:39:59;5.97;;;2.08;;
60851;SDS011;48553;50.766;2.900;2022-12-07T13:43:02;5.45;;;2.00;;
60851;SDS011;48553;50.766;2.900;2022-12-07T13:46:06;4.68;;;2.00;;
60851;SDS011;48553;50.766;2.900;2022-12-07T13:49:28;6.00;;;2.00;;
60851;SDS011;48553;50.766;2.900;2022-12-07T13:52:30;7.70;;;2.00;;
60851;SDS011;48553;50.766;2.900;2022-12-07T13:55:31;4.85;;;1.83;;
60851;SDS011;48553;50.766;2.900;2022-12-07T13:58:32;3.03;;;1.55;;
60851;SDS011;48553;50.766;2.900;2022-12-07T14:01:33;5.10;;;2.03;;
60851;SDS011;48553;50.766;2.900;2022-12-07T14:04:34;7.13;;;2.28;;
60851;SDS011;48553;50.766;2.900;2022-12-07T14:07:44;7.05;;;2.13;;
60851;SDS011;48553;50.766;2.900;2022-12-07T14:10:54;7.10;;;2.10;;
60851;SDS011;48553;50.766;2.900;2022-12-07T14:13:57;7.35;;;1.98;;
60851;SDS011;48553;50.766;2.900;2022-12-07T14:17:17;4.20;;;2.00;;
60851;SDS011;48553;50.766;2.900;2022-12-07T14:23:37;5.32;;;2.03;;
60851;SDS011;48553;50.766;2.900;2022-12-07T14:26:39;8.43;;;2.28;;
60851;SDS011;48553;50.766;2.900;2022-12-07T14:29:40;5.35;;;2.08;;
60851;SDS011;48553;50.766;2.900;2022-12-07T14:32:40;6.78;;;2.10;;
60851;SDS011;48553;50.766;2.900;2022-12-07T14:35:42;5.97;;;1.95;;
60851;SDS011;48553;50.766;2.900;2022-12-07T14:38:43;5.53;;;2.20;;
60851;SDS011;48553;50.766;2.900;2022-12-07T14:41:43;5.45;;;2.10;;
60851;SDS011;48553;50.766;2.900;2022-12-07T14:44:53;3.63;;;1.83;;
60851;SDS011;48553;50.766;2.900;2022-12-07T14:47:53;5.78;;;2.05;;
60851;SDS011;48553;50.766;2.900;2022-12-07T14:50:53;5.43;;;2.13;;
60851;SDS011;48553;50.766;2.900;2022-12-07T14:53:54;5.20;;;1.80;;
60851;SDS011;48553;50.766;2.900;2022-12-07T14:56:55;5.72;;;1.88;;
60851;SDS011;48553;50.766;2.900;2022-12-07T14:59:55;6.20;;;2.20;;
60851;SDS011;48553;50.766;2.900;2022-12-07T15:02:56;5.82;;;2.28;;
60851;SDS011;48553;50.766;2.900;2022-12-07T15:05:57;7.70;;;2.35;;
60851;SDS011;48553;50.766;2.900;2022-12-07T15:08:57;5.45;;;2.28;;
60851;SDS011;48553;50.766;2.900;2022-12-07T15:11:58;6.70;;;2.22;;
60851;SDS011;48553;50.766;2.900;2022-12-07T15:14:58;6.15;;;2.17;;
60851;SDS011;48553;50.766;2.900;2022-12-07T15:18:01;5.85;;;2.38;;
60851;SDS011;48553;50.766;2.900;2022-12-07T15:21:01;7.95;;;2.55;;
60851;SDS011;48553;50.766;2.900;2022-12-07T15:24:01;5.88;;;2.38;;
60851;SDS011;48553;50.766;2.900;2022-12-07T15:27:02;6.32;;;2.72;;
60851;SDS011;48553;50.766;2.900;2022-12-07T15:30:03;8.52;;;3.05;;
60851;SDS011;48553;50.766;2.900;2022-12-07T15:33:04;6.88;;;2.75;;
60851;SDS011;48553;50.766;2.900;2022-12-07T15:36:04;7.32;;;3.25;;
60851;SDS011;48553;50.766;2.900;2022-12-07T15:39:05;8.10;;;3.10;;
60851;SDS011;48553;50.766;2.900;2022-12-07T15:42:05;8.57;;;3.38;;
60851;SDS011;48553;50.766;2.900;2022-12-07T15:45:06;7.97;;;3.17;;
60851;SDS011;48553;50.766;2.900;2022-12-07T15:48:08;8.90;;;3.38;;
60851;SDS011;48553;50.766;2.900;2022-12-07T15:51:09;7.55;;;3.28;;
60851;SDS011;48553;50.766;2.900;2022-12-07T15:54:20;12.73;;;3.90;;
60851;SDS011;48553;50.766;2.900;2022-12-07T15:57:22;7.57;;;3.47;;
60851;SDS011;48553;50.766;2.900;2022-12-07T16:00:23;8.65;;;3.22;;
60851;SDS011;48553;50.766;2.900;2022-12-07T16:03:23;7.63;;;3.40;;
60851;SDS011;48553;50.766;2.900;2022-12-07T16:06:24;9.10;;;3.30;;
60851;SDS011;48553;50.766;2.900;2022-12-07T16:09:24;7.18;;;3.30;;
60851;SDS011;48553;50.766;2.900;2022-12-07T16:12:25;7.32;;;3.13;;
60851;SDS011;48553;50.766;2.900;2022-12-07T16:15:25;8.05;;;3.15;;
60851;SDS011;48553;50.766;2.900;2022-12-07T16:18:26;13.07;;;3.20;;
60851;SDS011;48553;50.766;2.900;2022-12-07T16:21:27;8.80;;;3.38;;
60851;SDS011;48553;50.766;2.900;2022-12-07T16:24:27;8.32;;;2.92;;
60851;SDS011;48553;50.766;2.900;2022-12-07T16:27:28;8.68;;;3.35;;
60851;SDS011;48553;50.766;2.900;2022-12-07T16:30:28;8.70;;;3.38;;
60851;SDS011;48553;50.766;2.900;2022-12-07T16:33:28;7.82;;;3.60;;
60851;SDS011;48553;50.766;2.900;2022-12-07T16:36:29;8.80;;;3.47;;
60851;SDS011;48553;50.766;2.900;2022-12-07T16:39:29;7.78;;;3.50;;
60851;SDS011;48553;50.766;2.900;2022-12-07T16:42:33;9.38;;;3.67;;
60851;SDS011;48553;50.766;2.900;2022-12-07T16:45:36;8.30;;;3.30;;
60851;SDS011;48553;50.766;2.900;2022-12-07T16:48:37;8.82;;;3.42;;
60851;SDS011;48553;50.766;2.900;2022-12-07T16:51:38;6.65;;;3.60;;
60851;SDS011;48553;50.766;2.900;2022-12-07T16:54:39;8.55;;;3.53;;
60851;SDS011;48553;50.766;2.900;2022-12-07T16:57:39;9.75;;;3.63;;
60851;SDS011;48553;50.766;2.900;2022-12-07T17:00:40;9.55;;;3.28;;
60851;SDS011;48553;50.766;2.900;2022-12-07T17:03:41;9.35;;;3.45;;
60851;SDS011;48553;50.766;2.900;2022-12-07T17:06:43;8.90;;;4.10;;
60851;SDS011;48553;50.766;2.900;2022-12-07T17:09:43;9.15;;;3.70;;
60851;SDS011;48553;50.766;2.900;2022-12-07T17:12:43;9.75;;;4.00;;
60851;SDS011;48553;50.766;2.900;2022-12-07T17:15:44;9.55;;;4.07;;
60851;SDS011;48553;50.766;2.900;2022-12-07T17:19:05;8.48;;;3.67;;
60851;SDS011;48553;50.766;2.900;2022-12-07T17:22:07;9.57;;;3.88;;
60851;SDS011;48553;50.766;2.900;2022-12-07T17:25:07;10.43;;;4.13;;
60851;SDS011;48553;50.766;2.900;2022-12-07T17:28:08;10.07;;;4.43;;
60851;SDS011;48553;50.766;2.900;2022-12-07T17:31:09;9.40;;;4.38;;
60851;SDS011;48553;50.766;2.900;2022-12-07T17:34:16;7.40;;;3.88;;
60851;SDS011;48553;50.766;2.900;2022-12-07T17:37:16;10.07;;;4.18;;
60851;SDS011;48553;50.766;2.900;2022-12-07T17:40:17;8.73;;;4.43;;
60851;SDS011;48553;50.766;2.900;2022-12-07T17:43:17;9.80;;;4.43;;
60851;SDS011;48553;50.766;2.900;2022-12-07T17:46:17;8.88;;;4.30;;
60851;SDS011;48553;50.766;2.900;2022-12-07T17:49:18;9.73;;;4.53;;
60851;SDS011;48553;50.766;2.900;2022-12-07T17:52:18;10.48;;;4.80;;
60851;SDS011;48553;50.766;2.900;2022-12-07T17:55:37;9.02;;;4.32;;
60851;SDS011;48553;50.766;2.900;2022-12-07T17:58:39;10.07;;;4.75;;
60851;SDS011;48553;50.766;2.900;2022-12-07T18:01:39;9.90;;;4.88;;
60851;SDS011;48553;50.766;2.900;2022-12-07T18:04:41;11.45;;;4.93;;
60851;SDS011;48553;50.766;2.900;2022-12-07T18:07:42;10.23;;;4.60;;
60851;SDS011;48553;50.766;2.900;2022-12-07T18:10:42;11.98;;;5.10;;
60851;SDS011;48553;50.766;2.900;2022-12-07T18:13:42;9.63;;;4.97;;
60851;SDS011;48553;50.766;2.900;2022-12-07T18:16:43;10.45;;;4.60;;
60851;SDS011;48553;50.766;2.900;2022-12-07T18:19:43;8.85;;;4.50;;
60851;SDS011;48553;50.766;2.900;2022-12-07T18:22:44;10.32;;;5.05;;
60851;SDS011;48553;50.766;2.900;2022-12-07T18:25:48;12.60;;;5.03;;
60851;SDS011;48553;50.766;2.900;2022-12-07T18:28:49;11.77;;;4.97;;
60851;SDS011;48553;50.766;2.900;2022-12-07T18:31:49;11.43;;;5.18;;
60851;SDS011;48553;50.766;2.900;2022-12-07T18:34:51;9.85;;;5.45;;
60851;SDS011;48553;50.766;2.900;2022-12-07T18:37:51;11.93;;;5.63;;
60851;SDS011;48553;50.766;2.900;2022-12-07T18:40:52;11.95;;;5.10;;
60851;SDS011;48553;50.766;2.900;2022-12-07T18:43:52;10.52;;;5.38;;
60851;SDS011;48553;50.766;2.900;2022-12-07T18:46:53;12.27;;;5.53;;
60851;SDS011;48553;50.766;2.900;2022-12-07T18:49:53;10.93;;;5.72;;
60851;SDS011;48553;50.766;2.900;2022-12-07T18:52:55;12.90;;;5.63;;
60851;SDS011;48553;50.766;2.900;2022-12-07T18:56:09;13.20;;;6.18;;
60851;SDS011;48553;50.766;2.900;2022-12-07T18:59:14;12.02;;;6.05;;
60851;SDS011;48553;50.766;2.900;2022-12-07T19:02:33;13.23;;;5.93;;
60851;SDS011;48553;50.766;2.900;2022-12-07T19:05:34;13.15;;;5.75;;
60851;SDS011;48553;50.766;2.900;2022-12-07T19:08:35;12.05;;;5.57;;
60851;SDS011;48553;50.766;2.900;2022-12-07T19:11:36;11.15;;;5.25;;
60851;SDS011;48553;50.766;2.900;2022-12-07T19:14:48;15.23;;;5.82;;
60851;SDS011;48553;50.766;2.900;2022-12-07T19:17:49;13.50;;;5.85;;
60851;SDS011;48553;50.766;2.900;2022-12-07T19:20:49;13.38;;;5.88;;
60851;SDS011;48553;50.766;2.900;2022-12-07T19:23:50;12.43;;;6.05;;
60851;SDS011;48553;50.766;2.900;2022-12-07T19:26:51;11.10;;;5.53;;
60851;SDS011;48553;50.766;2.900;2022-12-07T19:29:52;11.93;;;5.05;;
60851;SDS011;48553;50.766;2.900;2022-12-07T19:32:52;12.57;;;5.85;;
60851;SDS011;48553;50.766;2.900;2022-12-07T19:35:53;12.88;;;5.93;;
60851;SDS011;48553;50.766;2.900;2022-12-07T19:38:53;12.43;;;5.88;;
60851;SDS011;48553;50.766;2.900;2022-12-07T19:41:54;13.50;;;5.85;;
60851;SDS011;48553;50.766;2.900;2022-12-07T19:44:55;11.02;;;5.60;;
60851;SDS011;48553;50.766;2.900;2022-12-07T19:47:55;12.80;;;5.53;;
60851;SDS011;48553;50.766;2.900;2022-12-07T19:51:00;15.90;;;6.15;;
60851;SDS011;48553;50.766;2.900;2022-12-07T19:54:02;12.57;;;6.15;;
60851;SDS011;48553;50.766;2.900;2022-12-07T19:57:03;11.93;;;5.22;;
60851;SDS011;48553;50.766;2.900;2022-12-07T20:00:06;9.95;;;5.38;;
60851;SDS011;48553;50.766;2.900;2022-12-07T20:03:08;10.40;;;4.43;;
60851;SDS011;48553;50.766;2.900;2022-12-07T20:06:09;9.55;;;4.05;;
60851;SDS011;48553;50.766;2.900;2022-12-07T20:09:12;7.65;;;3.50;;
60851;SDS011;48553;50.766;2.900;2022-12-07T20:12:12;8.73;;;4.00;;